sensor_id;sensor_type;location;lat;lon;timestamp;temperature;humidity
10468;DHT22;5281;48.878;9.394;2023-02-15T00:01:08;1.40;99.90
10468;DHT22;5281;48.878;9.394;2023-02-15T00:03:36;1.40;99.90
10468;DHT22;5281;48.878;9.394;2023-02-15T00:06:03;1.40;99.90
10468;DHT22;5281;48.878;9.394;2023-02-15T00:08:30;1.40;99.90
10468;DHT22;5281;48.878;9.394;2023-02-15T00:11:04;1.30;99.90
10468;DHT22;5281;48.878;9.394;2023-02-15T00:13:31;1.30;99.90
10468;DHT22;5281;48.878;9.394;2023-02-15T00:16:01;1.40;99.90
10468;DHT22;5281;48.878;9.394;2023-02-15T00:18:29;1.50;99.90
10468;DHT22;5281;48.878;9.394;2023-02-15T00:20:56;1.40;99.90
10468;DHT22;5281;48.878;9.394;2023-02-15T00:23:24;1.40;99.90
10468;DHT22;5281;48.878;9.394;2023-02-15T00:25:52;1.50;99.90
10468;DHT22;5281;48.878;9.394;2023-02-15T00:28:19;1.50;99.90
10468;DHT22;5281;48.878;9.394;2023-02-15T00:30:47;1.50;99.90
10468;DHT22;5281;48.878;9.394;2023-02-15T00:33:14;1.50;99.90
10468;DHT22;5281;48.878;9.394;2023-02-15T00:35:42;1.50;99.90
10468;DHT22;5281;48.878;9.394;2023-02-15T00:38:08;1.50;99.90
10468;DHT22;5281;48.878;9.394;2023-02-15T00:40:35;1.50;99.90
10468;DHT22;5281;48.878;9.394;2023-02-15T00:43:02;1.50;99.90
10468;DHT22;5281;48.878;9.394;2023-02-15T00:45:28;1.50;99.90
10468;DHT22;5281;48.878;9.394;2023-02-15T00:47:55;1.50;99.90
10468;DHT22;5281;48.878;9.394;2023-02-15T00:50:22;1.60;99.90
10468;DHT22;5281;48.878;9.394;2023-02-15T00:52:50;1.60;99.90
10468;DHT22;5281;48.878;9.394;2023-02-15T00:55:16;1.50;99.90
10468;DHT22;5281;48.878;9.394;2023-02-15T00:57:43;1.50;99.90
10468;DHT22;5281;48.878;9.394;2023-02-15T01:00:11;1.50;99.90
10468;DHT22;5281;48.878;9.394;2023-02-15T01:02:38;1.50;99.90
10468;DHT22;5281;48.878;9.394;2023-02-15T01:05:05;1.40;99.90
10468;DHT22;5281;48.878;9.394;2023-02-15T01:07:32;1.30;99.90
10468;DHT22;5281;48.878;9.394;2023-02-15T01:10:00;1.20;99.90
10468;DHT22;5281;48.878;9.394;2023-02-15T01:12:27;1.20;99.90
10468;DHT22;5281;48.878;9.394;2023-02-15T01:14:54;1.10;99.90
10468;DHT22;5281;48.878;9.394;2023-02-15T01:17:20;0.90;99.90
10468;DHT22;5281;48.878;9.394;2023-02-15T01:19:47;0.80;99.90
10468;DHT22;5281;48.878;9.394;2023-02-15T01:22:14;0.60;99.90
10468;DHT22;5281;48.878;9.394;2023-02-15T01:24:41;0.60;99.90
10468;DHT22;5281;48.878;9.394;2023-02-15T01:27:09;0.70;99.90
10468;DHT22;5281;48.878;9.394;2023-02-15T01:29:35;0.80;99.90
10468;DHT22;5281;48.878;9.394;2023-02-15T01:32:02;0.80;99.90
10468;DHT22;5281;48.878;9.394;2023-02-15T01:34:29;0.70;99.90
10468;DHT22;5281;48.878;9.394;2023-02-15T01:36:56;0.60;99.90
10468;DHT22;5281;48.878;9.394;2023-02-15T01:39:23;0.70;99.90
10468;DHT22;5281;48.878;9.394;2023-02-15T01:41:50;0.80;99.90
10468;DHT22;5281;48.878;9.394;2023-02-15T01:44:49;0.80;99.90
10468;DHT22;5281;48.878;9.394;2023-02-15T01:47:22;0.80;99.90
10468;DHT22;5281;48.878;9.394;2023-02-15T01:50:01;0.80;99.90
10468;DHT22;5281;48.878;9.394;2023-02-15T01:52:30;0.90;99.90
10468;DHT22;5281;48.878;9.394;2023-02-15T01:54:57;1.00;99.90
10468;DHT22;5281;48.878;9.394;2023-02-15T01:57:25;1.00;99.90
10468;DHT22;5281;48.878;9.394;2023-02-15T01:59:57;1.10;99.90
10468;DHT22;5281;48.878;9.394;2023-02-15T02:02:25;1.10;99.90
10468;DHT22;5281;48.878;9.394;2023-02-15T02:04:54;1.10;99.90
10468;DHT22;5281;48.878;9.394;2023-02-15T02:07:27;1.10;99.90
10468;DHT22;5281;48.878;9.394;2023-02-15T02:09:54;1.10;99.90
10468;DHT22;5281;48.878;9.394;2023-02-15T02:12:21;1.00;99.90
10468;DHT22;5281;48.878;9.394;2023-02-15T02:14:49;1.00;99.90
10468;DHT22;5281;48.878;9.394;2023-02-15T02:17:24;0.90;99.90
10468;DHT22;5281;48.878;9.394;2023-02-15T02:20:16;0.90;99.90
10468;DHT22;5281;48.878;9.394;2023-02-15T02:23:18;0.90;99.90
10468;DHT22;5281;48.878;9.394;2023-02-15T02:26:31;1.00;99.90
10468;DHT22;5281;48.878;9.394;2023-02-15T02:29:33;1.00;99.90
10468;DHT22;5281;48.878;9.394;2023-02-15T02:35:09;0.80;99.90
10468;DHT22;5281;48.878;9.394;2023-02-15T02:37:45;0.70;99.90
10468;DHT22;5281;48.878;9.394;2023-02-15T02:40:20;0.70;99.90
10468;DHT22;5281;48.878;9.394;2023-02-15T02:42:56;0.80;99.90
10468;DHT22;5281;48.878;9.394;2023-02-15T02:45:27;0.80;99.90
10468;DHT22;5281;48.878;9.394;2023-02-15T02:47:58;0.80;99.90
10468;DHT22;5281;48.878;9.394;2023-02-15T02:50:28;0.80;99.90
10468;DHT22;5281;48.878;9.394;2023-02-15T02:52:57;0.80;99.90
10468;DHT22;5281;48.878;9.394;2023-02-15T02:55:29;0.80;99.90
10468;DHT22;5281;48.878;9.394;2023-02-15T02:58:00;0.90;99.90
10468;DHT22;5281;48.878;9.394;2023-02-15T03:00:30;0.90;99.90
10468;DHT22;5281;48.878;9.394;2023-02-15T03:03:01;1.00;99.90
10468;DHT22;5281;48.878;9.394;2023-02-15T03:05:33;1.00;99.90
10468;DHT22;5281;48.878;9.394;2023-02-15T03:08:03;0.90;99.90
10468;DHT22;5281;48.878;9.394;2023-02-15T03:10:32;0.80;99.90
10468;DHT22;5281;48.878;9.394;2023-02-15T03:13:01;0.70;99.90
10468;DHT22;5281;48.878;9.394;2023-02-15T03:15:30;0.70;99.90
10468;DHT22;5281;48.878;9.394;2023-02-15T03:18:21;0.60;99.90
10468;DHT22;5281;48.878;9.394;2023-02-15T03:20:51;0.70;99.90
10468;DHT22;5281;48.878;9.394;2023-02-15T03:23:21;0.70;99.90
10468;DHT22;5281;48.878;9.394;2023-02-15T03:25:51;0.70;99.90
10468;DHT22;5281;48.878;9.394;2023-02-15T03:28:22;0.80;99.90
10468;DHT22;5281;48.878;9.394;2023-02-15T03:30:53;0.70;99.90
10468;DHT22;5281;48.878;9.394;2023-02-15T03:33:23;0.70;99.90
10468;DHT22;5281;48.878;9.394;2023-02-15T03:35:57;0.60;99.90
10468;DHT22;5281;48.878;9.394;2023-02-15T03:38:31;0.70;99.90
10468;DHT22;5281;48.878;9.394;2023-02-15T03:40:59;0.70;99.90
10468;DHT22;5281;48.878;9.394;2023-02-15T03:43:41;0.70;99.90
10468;DHT22;5281;48.878;9.394;2023-02-15T03:46:13;0.70;99.90
10468;DHT22;5281;48.878;9.394;2023-02-15T03:48:45;0.70;99.90
10468;DHT22;5281;48.878;9.394;2023-02-15T03:51:18;0.70;99.90
10468;DHT22;5281;48.878;9.394;2023-02-15T03:54:06;0.70;99.90
10468;DHT22;5281;48.878;9.394;2023-02-15T03:56:35;0.70;99.90
10468;DHT22;5281;48.878;9.394;2023-02-15T03:59:03;0.60;99.90
10468;DHT22;5281;48.878;9.394;2023-02-15T04:01:54;0.60;99.90
10468;DHT22;5281;48.878;9.394;2023-02-15T04:04:28;0.60;99.90
10468;DHT22;5281;48.878;9.394;2023-02-15T04:06:58;0.60;99.90
10468;DHT22;5281;48.878;9.394;2023-02-15T04:09:24;0.50;99.90
10468;DHT22;5281;48.878;9.394;2023-02-15T04:12:08;0.30;99.90
10468;DHT22;5281;48.878;9.394;2023-02-15T04:14:35;0.10;99.90
10468;DHT22;5281;48.878;9.394;2023-02-15T04:17:20;0.00;99.90
10468;DHT22;5281;48.878;9.394;2023-02-15T04:19:46;0.00;99.90
10468;DHT22;5281;48.878;9.394;2023-02-15T04:22:32;-0.10;99.90
10468;DHT22;5281;48.878;9.394;2023-02-15T04:25:17;0.00;99.90
10468;DHT22;5281;48.878;9.394;2023-02-15T04:27:46;0.00;99.90
10468;DHT22;5281;48.878;9.394;2023-02-15T04:30:15;0.00;99.90
10468;DHT22;5281;48.878;9.394;2023-02-15T04:32:42;0.00;99.90
10468;DHT22;5281;48.878;9.394;2023-02-15T04:35:09;0.30;99.90
10468;DHT22;5281;48.878;9.394;2023-02-15T04:37:38;0.00;99.90
10468;DHT22;5281;48.878;9.394;2023-02-15T04:40:08;0.20;99.90
10468;DHT22;5281;48.878;9.394;2023-02-15T04:42:35;0.20;99.90
10468;DHT22;5281;48.878;9.394;2023-02-15T04:45:02;0.20;99.90
10468;DHT22;5281;48.878;9.394;2023-02-15T04:47:29;0.20;99.90
10468;DHT22;5281;48.878;9.394;2023-02-15T04:49:56;0.20;99.90
10468;DHT22;5281;48.878;9.394;2023-02-15T04:52:23;0.20;99.90
10468;DHT22;5281;48.878;9.394;2023-02-15T04:54:51;0.20;99.90
10468;DHT22;5281;48.878;9.394;2023-02-15T04:57:18;0.20;99.90
10468;DHT22;5281;48.878;9.394;2023-02-15T04:59:45;0.20;99.90
10468;DHT22;5281;48.878;9.394;2023-02-15T05:02:11;0.20;99.90
10468;DHT22;5281;48.878;9.394;2023-02-15T05:04:38;0.20;99.90
10468;DHT22;5281;48.878;9.394;2023-02-15T05:07:05;0.30;99.90
10468;DHT22;5281;48.878;9.394;2023-02-15T05:09:31;0.40;99.90
10468;DHT22;5281;48.878;9.394;2023-02-15T05:11:59;0.30;99.90
10468;DHT22;5281;48.878;9.394;2023-02-15T05:14:26;0.40;99.90
10468;DHT22;5281;48.878;9.394;2023-02-15T05:16:53;0.30;99.90
10468;DHT22;5281;48.878;9.394;2023-02-15T05:19:20;0.40;99.90
10468;DHT22;5281;48.878;9.394;2023-02-15T05:21:48;0.40;99.90
10468;DHT22;5281;48.878;9.394;2023-02-15T05:24:15;0.40;99.90
10468;DHT22;5281;48.878;9.394;2023-02-15T05:27:00;0.50;99.90
10468;DHT22;5281;48.878;9.394;2023-02-15T05:29:45;0.40;99.90
10468;DHT22;5281;48.878;9.394;2023-02-15T05:32:12;0.40;99.90
10468;DHT22;5281;48.878;9.394;2023-02-15T05:34:39;0.30;99.90
10468;DHT22;5281;48.878;9.394;2023-02-15T05:37:06;0.40;99.90
10468;DHT22;5281;48.878;9.394;2023-02-15T05:39:34;0.40;99.90
10468;DHT22;5281;48.878;9.394;2023-02-15T05:42:02;0.40;99.90
10468;DHT22;5281;48.878;9.394;2023-02-15T05:44:29;0.40;99.90
10468;DHT22;5281;48.878;9.394;2023-02-15T05:46:56;0.30;99.90
10468;DHT22;5281;48.878;9.394;2023-02-15T05:49:22;0.20;99.90
10468;DHT22;5281;48.878;9.394;2023-02-15T05:51:49;0.30;99.90
10468;DHT22;5281;48.878;9.394;2023-02-15T05:54:16;0.30;99.90
10468;DHT22;5281;48.878;9.394;2023-02-15T05:56:42;0.40;99.90
10468;DHT22;5281;48.878;9.394;2023-02-15T05:59:10;0.50;99.90
10468;DHT22;5281;48.878;9.394;2023-02-15T06:01:38;0.50;99.90
10468;DHT22;5281;48.878;9.394;2023-02-15T06:04:04;0.50;99.90
10468;DHT22;5281;48.878;9.394;2023-02-15T06:06:31;0.50;99.90
10468;DHT22;5281;48.878;9.394;2023-02-15T06:08:59;0.40;99.90
10468;DHT22;5281;48.878;9.394;2023-02-15T06:11:26;0.40;99.90
10468;DHT22;5281;48.878;9.394;2023-02-15T06:13:53;0.30;99.90
10468;DHT22;5281;48.878;9.394;2023-02-15T06:16:21;0.30;99.90
10468;DHT22;5281;48.878;9.394;2023-02-15T06:18:48;0.20;99.90
10468;DHT22;5281;48.878;9.394;2023-02-15T06:21:15;0.20;99.90
10468;DHT22;5281;48.878;9.394;2023-02-15T06:23:42;0.00;99.90
10468;DHT22;5281;48.878;9.394;2023-02-15T06:26:09;-0.10;99.90
10468;DHT22;5281;48.878;9.394;2023-02-15T06:28:36;-0.10;99.90
10468;DHT22;5281;48.878;9.394;2023-02-15T06:31:03;0.00;99.90
10468;DHT22;5281;48.878;9.394;2023-02-15T06:33:32;0.10;99.90
10468;DHT22;5281;48.878;9.394;2023-02-15T06:35:59;0.10;99.90
10468;DHT22;5281;48.878;9.394;2023-02-15T06:38:27;0.00;99.90
10468;DHT22;5281;48.878;9.394;2023-02-15T06:40:53;0.00;99.90
10468;DHT22;5281;48.878;9.394;2023-02-15T06:43:20;0.00;99.90
10468;DHT22;5281;48.878;9.394;2023-02-15T06:45:47;0.00;99.90
10468;DHT22;5281;48.878;9.394;2023-02-15T06:48:13;0.00;99.90
10468;DHT22;5281;48.878;9.394;2023-02-15T06:50:41;0.00;99.90
10468;DHT22;5281;48.878;9.394;2023-02-15T06:53:08;0.00;99.90
10468;DHT22;5281;48.878;9.394;2023-02-15T06:55:35;0.10;99.90
10468;DHT22;5281;48.878;9.394;2023-02-15T06:58:01;0.20;99.90
10468;DHT22;5281;48.878;9.394;2023-02-15T07:00:28;0.30;99.90
10468;DHT22;5281;48.878;9.394;2023-02-15T07:02:56;0.40;99.90
10468;DHT22;5281;48.878;9.394;2023-02-15T07:05:24;0.50;99.90
10468;DHT22;5281;48.878;9.394;2023-02-15T07:07:57;0.70;99.90
10468;DHT22;5281;48.878;9.394;2023-02-15T07:10:24;0.80;99.90
10468;DHT22;5281;48.878;9.394;2023-02-15T07:12:51;1.00;99.90
10468;DHT22;5281;48.878;9.394;2023-02-15T07:15:18;1.20;99.90
10468;DHT22;5281;48.878;9.394;2023-02-15T07:17:46;1.60;99.90
10468;DHT22;5281;48.878;9.394;2023-02-15T07:20:15;2.20;99.90
10468;DHT22;5281;48.878;9.394;2023-02-15T07:22:42;2.80;99.90
10468;DHT22;5281;48.878;9.394;2023-02-15T07:25:11;3.40;99.90
10468;DHT22;5281;48.878;9.394;2023-02-15T07:27:39;3.90;99.90
10468;DHT22;5281;48.878;9.394;2023-02-15T07:30:07;4.30;99.90
10468;DHT22;5281;48.878;9.394;2023-02-15T07:32:35;4.30;99.90
10468;DHT22;5281;48.878;9.394;2023-02-15T07:35:02;4.10;99.90
10468;DHT22;5281;48.878;9.394;2023-02-15T07:37:28;3.90;99.90
10468;DHT22;5281;48.878;9.394;2023-02-15T07:39:55;3.60;99.90
10468;DHT22;5281;48.878;9.394;2023-02-15T07:42:23;3.40;99.90
10468;DHT22;5281;48.878;9.394;2023-02-15T07:44:50;3.30;99.90
10468;DHT22;5281;48.878;9.394;2023-02-15T07:47:17;3.30;99.90
10468;DHT22;5281;48.878;9.394;2023-02-15T07:49:45;3.20;99.90
10468;DHT22;5281;48.878;9.394;2023-02-15T07:52:11;3.00;99.90
10468;DHT22;5281;48.878;9.394;2023-02-15T07:54:38;2.80;99.90
10468;DHT22;5281;48.878;9.394;2023-02-15T07:57:05;2.60;99.90
10468;DHT22;5281;48.878;9.394;2023-02-15T07:59:33;2.60;99.90
10468;DHT22;5281;48.878;9.394;2023-02-15T08:02:00;2.50;99.90
10468;DHT22;5281;48.878;9.394;2023-02-15T08:04:26;2.40;99.90
10468;DHT22;5281;48.878;9.394;2023-02-15T08:06:54;2.50;99.90
10468;DHT22;5281;48.878;9.394;2023-02-15T08:09:20;2.50;99.90
10468;DHT22;5281;48.878;9.394;2023-02-15T08:11:47;2.50;99.90
10468;DHT22;5281;48.878;9.394;2023-02-15T08:14:16;2.50;99.90
10468;DHT22;5281;48.878;9.394;2023-02-15T08:16:45;2.50;99.90
10468;DHT22;5281;48.878;9.394;2023-02-15T08:19:14;2.50;99.90
10468;DHT22;5281;48.878;9.394;2023-02-15T08:21:42;2.20;99.90
10468;DHT22;5281;48.878;9.394;2023-02-15T08:24:11;2.20;99.90
10468;DHT22;5281;48.878;9.394;2023-02-15T08:26:39;2.40;99.90
10468;DHT22;5281;48.878;9.394;2023-02-15T08:29:07;2.30;99.90
10468;DHT22;5281;48.878;9.394;2023-02-15T08:31:34;2.30;99.90
10468;DHT22;5281;48.878;9.394;2023-02-15T08:34:04;2.30;99.90
10468;DHT22;5281;48.878;9.394;2023-02-15T08:36:31;2.40;99.90
10468;DHT22;5281;48.878;9.394;2023-02-15T08:38:59;2.50;99.90
10468;DHT22;5281;48.878;9.394;2023-02-15T08:41:28;2.70;99.90
10468;DHT22;5281;48.878;9.394;2023-02-15T08:43:57;2.80;99.90
10468;DHT22;5281;48.878;9.394;2023-02-15T08:46:26;3.00;99.90
10468;DHT22;5281;48.878;9.394;2023-02-15T08:48:53;3.00;99.90
10468;DHT22;5281;48.878;9.394;2023-02-15T08:51:22;3.00;99.90
10468;DHT22;5281;48.878;9.394;2023-02-15T08:53:51;3.10;99.90
10468;DHT22;5281;48.878;9.394;2023-02-15T08:56:19;3.10;99.90
10468;DHT22;5281;48.878;9.394;2023-02-15T08:58:47;2.80;99.90
10468;DHT22;5281;48.878;9.394;2023-02-15T09:01:14;2.80;99.90
10468;DHT22;5281;48.878;9.394;2023-02-15T09:03:44;3.00;99.90
10468;DHT22;5281;48.878;9.394;2023-02-15T09:06:11;3.20;99.90
10468;DHT22;5281;48.878;9.394;2023-02-15T09:08:40;3.30;99.90
10468;DHT22;5281;48.878;9.394;2023-02-15T09:11:09;3.30;99.90
10468;DHT22;5281;48.878;9.394;2023-02-15T09:13:36;3.20;99.90
10468;DHT22;5281;48.878;9.394;2023-02-15T09:16:05;3.20;99.90
10468;DHT22;5281;48.878;9.394;2023-02-15T09:18:33;3.40;99.90
10468;DHT22;5281;48.878;9.394;2023-02-15T09:21:09;3.30;99.90
10468;DHT22;5281;48.878;9.394;2023-02-15T09:23:36;3.50;99.90
10468;DHT22;5281;48.878;9.394;2023-02-15T09:26:08;3.70;99.90
10468;DHT22;5281;48.878;9.394;2023-02-15T09:28:35;3.80;99.90
10468;DHT22;5281;48.878;9.394;2023-02-15T09:31:07;3.90;99.90
10468;DHT22;5281;48.878;9.394;2023-02-15T09:33:35;4.10;99.90
10468;DHT22;5281;48.878;9.394;2023-02-15T09:36:02;4.30;99.90
10468;DHT22;5281;48.878;9.394;2023-02-15T09:38:29;4.30;99.90
10468;DHT22;5281;48.878;9.394;2023-02-15T09:41:04;4.30;99.90
10468;DHT22;5281;48.878;9.394;2023-02-15T09:43:40;4.40;99.90
10468;DHT22;5281;48.878;9.394;2023-02-15T09:46:26;4.60;99.90
10468;DHT22;5281;48.878;9.394;2023-02-15T09:48:56;4.60;99.90
10468;DHT22;5281;48.878;9.394;2023-02-15T09:51:50;4.70;99.90
10468;DHT22;5281;48.878;9.394;2023-02-15T09:54:29;4.70;99.90
10468;DHT22;5281;48.878;9.394;2023-02-15T09:57:07;4.90;99.90
10468;DHT22;5281;48.878;9.394;2023-02-15T09:59:42;5.10;99.90
10468;DHT22;5281;48.878;9.394;2023-02-15T10:02:22;5.20;99.90
10468;DHT22;5281;48.878;9.394;2023-02-15T10:05:01;5.20;99.90
10468;DHT22;5281;48.878;9.394;2023-02-15T10:07:54;5.40;99.90
10468;DHT22;5281;48.878;9.394;2023-02-15T10:10:32;5.50;99.90
10468;DHT22;5281;48.878;9.394;2023-02-15T10:13:14;5.70;99.90
10468;DHT22;5281;48.878;9.394;2023-02-15T10:15:53;5.90;99.90
10468;DHT22;5281;48.878;9.394;2023-02-15T10:18:34;6.10;99.90
10468;DHT22;5281;48.878;9.394;2023-02-15T10:21:12;6.30;99.90
10468;DHT22;5281;48.878;9.394;2023-02-15T10:23:57;6.40;99.90
10468;DHT22;5281;48.878;9.394;2023-02-15T10:26:31;6.40;99.90
10468;DHT22;5281;48.878;9.394;2023-02-15T10:29:08;6.40;99.90
10468;DHT22;5281;48.878;9.394;2023-02-15T10:31:41;6.60;99.90
10468;DHT22;5281;48.878;9.394;2023-02-15T10:34:15;6.60;99.90
10468;DHT22;5281;48.878;9.394;2023-02-15T10:39:55;6.50;99.90
10468;DHT22;5281;48.878;9.394;2023-02-15T10:42:34;6.70;99.90
10468;DHT22;5281;48.878;9.394;2023-02-15T10:45:14;6.70;99.90
10468;DHT22;5281;48.878;9.394;2023-02-15T10:48:00;7.00;99.90
10468;DHT22;5281;48.878;9.394;2023-02-15T10:50:40;7.20;99.90
10468;DHT22;5281;48.878;9.394;2023-02-15T10:53:24;7.30;99.90
10468;DHT22;5281;48.878;9.394;2023-02-15T10:55:56;7.50;99.90
10468;DHT22;5281;48.878;9.394;2023-02-15T10:58:38;7.50;99.90
10468;DHT22;5281;48.878;9.394;2023-02-15T11:01:16;7.40;99.90
10468;DHT22;5281;48.878;9.394;2023-02-15T11:04:10;7.50;99.90
10468;DHT22;5281;48.878;9.394;2023-02-15T11:06:44;7.70;99.90
10468;DHT22;5281;48.878;9.394;2023-02-15T11:09:17;7.90;99.90
10468;DHT22;5281;48.878;9.394;2023-02-15T11:11:49;8.10;99.90
10468;DHT22;5281;48.878;9.394;2023-02-15T11:14:23;8.30;99.90
10468;DHT22;5281;48.878;9.394;2023-02-15T11:16:57;8.50;99.90
10468;DHT22;5281;48.878;9.394;2023-02-15T11:19:31;8.50;99.90
10468;DHT22;5281;48.878;9.394;2023-02-15T11:22:02;8.60;99.90
10468;DHT22;5281;48.878;9.394;2023-02-15T11:24:33;8.60;99.90
10468;DHT22;5281;48.878;9.394;2023-02-15T11:27:04;8.50;99.90
10468;DHT22;5281;48.878;9.394;2023-02-15T11:29:34;8.60;99.90
10468;DHT22;5281;48.878;9.394;2023-02-15T11:32:12;8.70;99.90
10468;DHT22;5281;48.878;9.394;2023-02-15T11:34:48;8.70;99.90
10468;DHT22;5281;48.878;9.394;2023-02-15T11:37:20;8.90;99.90
10468;DHT22;5281;48.878;9.394;2023-02-15T11:39:51;8.90;99.90
10468;DHT22;5281;48.878;9.394;2023-02-15T11:42:23;9.00;99.90
10468;DHT22;5281;48.878;9.394;2023-02-15T11:44:58;9.20;99.90
10468;DHT22;5281;48.878;9.394;2023-02-15T11:47:26;9.10;99.90
10468;DHT22;5281;48.878;9.394;2023-02-15T11:49:54;9.10;99.90
10468;DHT22;5281;48.878;9.394;2023-02-15T11:52:21;9.20;99.90
10468;DHT22;5281;48.878;9.394;2023-02-15T11:54:49;9.40;99.90
10468;DHT22;5281;48.878;9.394;2023-02-15T11:57:19;9.70;99.90
10468;DHT22;5281;48.878;9.394;2023-02-15T11:59:52;9.90;99.90
10468;DHT22;5281;48.878;9.394;2023-02-15T12:02:21;10.10;99.90
10468;DHT22;5281;48.878;9.394;2023-02-15T12:04:50;10.20;99.90
10468;DHT22;5281;48.878;9.394;2023-02-15T12:07:23;10.10;99.90
10468;DHT22;5281;48.878;9.394;2023-02-15T12:09:54;10.10;99.90
10468;DHT22;5281;48.878;9.394;2023-02-15T12:12:24;9.90;99.90
10468;DHT22;5281;48.878;9.394;2023-02-15T12:14:53;9.80;99.90
10468;DHT22;5281;48.878;9.394;2023-02-15T12:17:23;9.60;99.90
10468;DHT22;5281;48.878;9.394;2023-02-15T12:19:51;9.50;99.90
10468;DHT22;5281;48.878;9.394;2023-02-15T12:22:24;9.50;99.90
10468;DHT22;5281;48.878;9.394;2023-02-15T12:24:52;9.70;99.90
10468;DHT22;5281;48.878;9.394;2023-02-15T12:27:24;9.80;99.90
10468;DHT22;5281;48.878;9.394;2023-02-15T12:29:56;9.90;99.90
10468;DHT22;5281;48.878;9.394;2023-02-15T12:32:25;10.00;99.90
10468;DHT22;5281;48.878;9.394;2023-02-15T12:34:55;10.20;99.90
10468;DHT22;5281;48.878;9.394;2023-02-15T12:37:29;10.20;99.90
10468;DHT22;5281;48.878;9.394;2023-02-15T12:39:58;10.40;99.90
10468;DHT22;5281;48.878;9.394;2023-02-15T12:42:27;10.50;99.90
10468;DHT22;5281;48.878;9.394;2023-02-15T12:44:57;10.80;99.90
10468;DHT22;5281;48.878;9.394;2023-02-15T12:47:25;11.00;99.90
10468;DHT22;5281;48.878;9.394;2023-02-15T12:50:12;11.10;99.90
10468;DHT22;5281;48.878;9.394;2023-02-15T12:52:45;11.30;99.90
10468;DHT22;5281;48.878;9.394;2023-02-15T12:55:23;11.30;99.90
10468;DHT22;5281;48.878;9.394;2023-02-15T12:58:05;11.20;99.90
10468;DHT22;5281;48.878;9.394;2023-02-15T13:00:32;11.20;99.90
10468;DHT22;5281;48.878;9.394;2023-02-15T13:03:02;11.00;99.90
10468;DHT22;5281;48.878;9.394;2023-02-15T13:05:33;10.90;99.90
10468;DHT22;5281;48.878;9.394;2023-02-15T13:08:08;10.70;99.90
10468;DHT22;5281;48.878;9.394;2023-02-15T13:10:39;10.70;99.90
10468;DHT22;5281;48.878;9.394;2023-02-15T13:13:10;10.90;99.90
10468;DHT22;5281;48.878;9.394;2023-02-15T13:15:39;11.00;99.90
10468;DHT22;5281;48.878;9.394;2023-02-15T13:18:14;11.20;99.90
10468;DHT22;5281;48.878;9.394;2023-02-15T13:20:42;11.20;99.90
10468;DHT22;5281;48.878;9.394;2023-02-15T13:23:21;11.10;99.90
10468;DHT22;5281;48.878;9.394;2023-02-15T13:25:50;11.20;99.90
10468;DHT22;5281;48.878;9.394;2023-02-15T13:28:19;11.40;99.90
10468;DHT22;5281;48.878;9.394;2023-02-15T13:30:49;11.50;99.90
10468;DHT22;5281;48.878;9.394;2023-02-15T13:33:21;11.60;99.90
10468;DHT22;5281;48.878;9.394;2023-02-15T13:35:58;11.80;99.90
10468;DHT22;5281;48.878;9.394;2023-02-15T13:38:46;12.00;99.90
10468;DHT22;5281;48.878;9.394;2023-02-15T13:41:16;11.80;99.90
10468;DHT22;5281;48.878;9.394;2023-02-15T13:43:52;11.90;99.90
10468;DHT22;5281;48.878;9.394;2023-02-15T13:46:32;12.00;99.90
10468;DHT22;5281;48.878;9.394;2023-02-15T13:49:13;12.00;99.90
10468;DHT22;5281;48.878;9.394;2023-02-15T13:51:46;12.10;99.90
10468;DHT22;5281;48.878;9.394;2023-02-15T13:54:32;12.30;99.90
10468;DHT22;5281;48.878;9.394;2023-02-15T13:57:12;12.40;99.90
10468;DHT22;5281;48.878;9.394;2023-02-15T13:59:48;12.40;99.90
10468;DHT22;5281;48.878;9.394;2023-02-15T14:02:46;12.30;99.90
10468;DHT22;5281;48.878;9.394;2023-02-15T14:05:33;12.20;99.90
10468;DHT22;5281;48.878;9.394;2023-02-15T14:08:07;12.20;99.90
10468;DHT22;5281;48.878;9.394;2023-02-15T14:10:59;12.30;99.90
10468;DHT22;5281;48.878;9.394;2023-02-15T14:13:43;12.40;99.90
10468;DHT22;5281;48.878;9.394;2023-02-15T14:16:17;12.40;99.90
10468;DHT22;5281;48.878;9.394;2023-02-15T14:18:48;12.20;99.90
10468;DHT22;5281;48.878;9.394;2023-02-15T14:21:21;12.10;99.90
10468;DHT22;5281;48.878;9.394;2023-02-15T14:23:56;12.10;99.90
10468;DHT22;5281;48.878;9.394;2023-02-15T14:26:35;12.30;99.90
10468;DHT22;5281;48.878;9.394;2023-02-15T14:29:15;12.90;99.90
10468;DHT22;5281;48.878;9.394;2023-02-15T14:31:46;13.40;99.90
10468;DHT22;5281;48.878;9.394;2023-02-15T14:34:20;13.70;99.90
10468;DHT22;5281;48.878;9.394;2023-02-15T14:36:49;13.60;99.90
10468;DHT22;5281;48.878;9.394;2023-02-15T14:39:26;13.30;99.90
10468;DHT22;5281;48.878;9.394;2023-02-15T14:42:20;13.00;99.90
10468;DHT22;5281;48.878;9.394;2023-02-15T14:44:51;13.00;99.90
10468;DHT22;5281;48.878;9.394;2023-02-15T14:47:25;12.90;99.90
10468;DHT22;5281;48.878;9.394;2023-02-15T14:49:53;12.80;99.90
10468;DHT22;5281;48.878;9.394;2023-02-15T14:52:19;12.80;99.90
10468;DHT22;5281;48.878;9.394;2023-02-15T14:55:00;12.90;99.90
10468;DHT22;5281;48.878;9.394;2023-02-15T14:57:31;12.90;99.90
10468;DHT22;5281;48.878;9.394;2023-02-15T14:59:59;13.00;99.90
10468;DHT22;5281;48.878;9.394;2023-02-15T15:02:42;13.20;99.90
10468;DHT22;5281;48.878;9.394;2023-02-15T15:05:14;13.30;99.90
10468;DHT22;5281;48.878;9.394;2023-02-15T15:07:45;13.40;99.90
10468;DHT22;5281;48.878;9.394;2023-02-15T15:10:35;13.40;99.90
10468;DHT22;5281;48.878;9.394;2023-02-15T15:19:09;13.20;99.90
10468;DHT22;5281;48.878;9.394;2023-02-15T15:21:54;12.90;99.90
10468;DHT22;5281;48.878;9.394;2023-02-15T15:24:47;12.90;99.90
10468;DHT22;5281;48.878;9.394;2023-02-15T15:27:37;12.90;99.90
10468;DHT22;5281;48.878;9.394;2023-02-15T15:37:00;12.80;99.90
10468;DHT22;5281;48.878;9.394;2023-02-15T15:42:50;12.60;99.90
10468;DHT22;5281;48.878;9.394;2023-02-15T15:45:30;12.50;99.90
10468;DHT22;5281;48.878;9.394;2023-02-15T15:48:26;12.30;99.90
10468;DHT22;5281;48.878;9.394;2023-02-15T15:50:57;12.20;99.90
10468;DHT22;5281;48.878;9.394;2023-02-15T15:53:29;12.20;99.90
10468;DHT22;5281;48.878;9.394;2023-02-15T15:56:01;12.10;99.90
10468;DHT22;5281;48.878;9.394;2023-02-15T15:58:30;12.00;99.90
10468;DHT22;5281;48.878;9.394;2023-02-15T16:01:01;11.90;99.90
10468;DHT22;5281;48.878;9.394;2023-02-15T16:03:30;11.80;99.90
10468;DHT22;5281;48.878;9.394;2023-02-15T16:05:57;11.70;99.90
10468;DHT22;5281;48.878;9.394;2023-02-15T16:08:29;11.60;99.90
10468;DHT22;5281;48.878;9.394;2023-02-15T16:10:56;11.30;99.90
10468;DHT22;5281;48.878;9.394;2023-02-15T16:13:23;11.20;99.90
10468;DHT22;5281;48.878;9.394;2023-02-15T16:15:52;11.10;99.90
10468;DHT22;5281;48.878;9.394;2023-02-15T16:18:21;10.90;99.90
10468;DHT22;5281;48.878;9.394;2023-02-15T16:20:51;10.70;99.90
10468;DHT22;5281;48.878;9.394;2023-02-15T16:26:19;10.30;99.90
10468;DHT22;5281;48.878;9.394;2023-02-15T16:28:49;9.90;99.90
10468;DHT22;5281;48.878;9.394;2023-02-15T16:31:17;9.80;99.90
10468;DHT22;5281;48.878;9.394;2023-02-15T16:33:44;9.80;99.90
10468;DHT22;5281;48.878;9.394;2023-02-15T16:36:20;9.70;99.90
10468;DHT22;5281;48.878;9.394;2023-02-15T16:39:07;9.50;99.90
10468;DHT22;5281;48.878;9.394;2023-02-15T16:41:36;9.40;99.90
10468;DHT22;5281;48.878;9.394;2023-02-15T16:44:07;9.30;99.90
10468;DHT22;5281;48.878;9.394;2023-02-15T16:46:39;9.20;99.90
10468;DHT22;5281;48.878;9.394;2023-02-15T16:49:14;9.20;99.90
10468;DHT22;5281;48.878;9.394;2023-02-15T16:51:43;9.10;99.90